Platzwetter Flugplatz Wels

Flugwetter Linz LOWL

[Quelle: ADDS]
METAR
LOWL 201620Z 29002KT 6000 -DZ FEW005 BKN006 03/03 Q1014 TEMPO BKN004 =
LOWL 201115Z 2012/2112 VRB02KT 2500 BR BKN004 TX08/2112Z TN03/2012Z TEMPO 2012/2017 5000 SCT004 BKN008 TEMPO 2016/2104 1400 -RA BKN006 PROB40 2100/2109 0300 -DZ FG VV002 BECMG 2109/2112 10005KT 5000 BKN010
TAF
LOWL 201115Z 2012/2112 VRB02KT 2500 BR BKN004 TX08/2112Z TN03/2012Z TEMPO 2012/2017 5000 SCT004 BKN008 TEMPO 2016/2104 1400 -RA BKN006 PROB40 2100/2109 0300 -DZ FG VV002 BECMG 2109/2112 10005KT 5000 BKN010 =

Flugwetter Salzburg LOWS

[Quelle: ADDS]
METAR
LOWS 201620Z 32008KT 7000 FEW007 SCT010 BKN018 03/02 Q1013 TEMPO 4000 BR FEW007 BKN009 =
LOWS 201115Z 2012/2112 34005KT 9999 FEW010 BKN025 TX07/2112Z TN04/2023Z TEMPO 2012/2016 FEW010 SCT030 TEMPO 2018/2109 3000 -RA BR BKN009 TEMPO 2110/2112 FEW010 SCT030
TAF
LOWS 201115Z 2012/2112 34005KT 9999 FEW010 BKN025 TX07/2112Z TN04/2023Z TEMPO 2012/2016 FEW010 SCT030 TEMPO 2018/2109 3000 -RA BR BKN009 TEMPO 2110/2112 FEW010 SCT030 =

Wind - Verlauf

Windrichtung - Verlauf

Temperatur - Verlauf

Relative Luftfeuchtigkeit - Verlauf

Luftdruck - Verlauf

Cookies erleichtern die Bereitstellung unserer Dienste. Mit der Nutzung unserer Dienste erklären Sie sich damit einverstanden, dass wir Cookies verwenden.
Weitere Informationen Ok